Airfield :
LOGIN :

Register | Disclaimer

   EN    FR    IT 

 










Legend :    VFR   Marginal VFR   IFR   Intensive IFR   Very Intensive IFR
Visi :
Ceiling :
>= 8 km
>= 3000ft
5 to 8 km
1000 to 3000 ft
1500m to 5 km
500 to 1000 ft
800 to 1500m
200 to 500 ft
< 800m
< 200 ft
Symbols :   Thunderstorms  Fog  Heavy snow  Heavy precipitations  Wind > 20 kt
SIGMETs :     Misc.  Thunderstorms  Icing  Turbulence  Mountain Waves  Volcanic Ashes







- Airport Elevation : 308 ft
- IATA code : MHG


EDFM - Mannheim-City

CURRENT METAR :
  • 200920Z 24006KT 130V290 9999 FEW033 SCT045 BKN073 23/15 Q1013

EXPIRED METARs :
  • 200850Z 23008KT 190V280 CAVOK 23/16 Q1013
  • 200820Z 25007KT 190V290 CAVOK 22/15 Q1013
  • 200750Z 20004KT 150V240 CAVOK 22/16 Q1013
  • 200720Z 21005KT 180V240 CAVOK 21/16 Q1013
  • 200650Z 22006KT 180V240 CAVOK 21/16 Q1013

TAF TAF EDFM
Valid from the 20 at 09:00 until the 20 at 18:00 UTC


200800Z 2009/2018 22006KT 9999 SCT035
PROB40
TEMPO 2011/2018 24015G30KT TSRA BKN025CB
No reported NOTAMs for that airfield.



MET'MAP, your aeronautical weather chart ! - Copyright ORBIFLY December 2007 - Disclaimer

ORBIFLY MET'MAP TEAM :

Programming & Development : Alexandra Zaïnal
Concept & Development : Baudouin d'Aumeries
Co-Development & Prog : Marc-Olivier Méhu
Technical & hardware support : Manuel Goepfert

Contact : metmap@orbifly.com




SOURCES & CREDITS :

   NOAA